sensor_id;sensor_type;location;lat;lon;timestamp;P1;durP1;ratioP1;P2;durP2;ratioP2
68234;SDS011;55052;52.056;5.296;2023-03-23T00:00:06;11.50;;;4.53;;
68234;SDS011;55052;52.056;5.296;2023-03-23T00:02:34;10.40;;;4.45;;
68234;SDS011;55052;52.056;5.296;2023-03-23T00:05:05;8.63;;;4.18;;
68234;SDS011;55052;52.056;5.296;2023-03-23T00:07:34;9.50;;;4.65;;
68234;SDS011;55052;52.056;5.296;2023-03-23T00:10:01;8.85;;;4.60;;
68234;SDS011;55052;52.056;5.296;2023-03-23T00:12:29;10.15;;;4.00;;
68234;SDS011;55052;52.056;5.296;2023-03-23T00:17:26;8.27;;;4.05;;
68234;SDS011;55052;52.056;5.296;2023-03-23T00:19:53;9.98;;;5.10;;
68234;SDS011;55052;52.056;5.296;2023-03-23T00:22:19;7.95;;;4.18;;
68234;SDS011;55052;52.056;5.296;2023-03-23T00:24:47;8.40;;;4.55;;
68234;SDS011;55052;52.056;5.296;2023-03-23T00:27:15;8.55;;;4.15;;
68234;SDS011;55052;52.056;5.296;2023-03-23T00:29:42;7.82;;;4.45;;
68234;SDS011;55052;52.056;5.296;2023-03-23T00:32:10;7.55;;;3.92;;
68234;SDS011;55052;52.056;5.296;2023-03-23T00:34:41;8.73;;;3.85;;
68234;SDS011;55052;52.056;5.296;2023-03-23T00:39:34;7.47;;;3.70;;
68234;SDS011;55052;52.056;5.296;2023-03-23T00:42:03;9.40;;;3.83;;
68234;SDS011;55052;52.056;5.296;2023-03-23T00:44:31;9.13;;;3.78;;
68234;SDS011;55052;52.056;5.296;2023-03-23T00:47:00;12.27;;;4.05;;
68234;SDS011;55052;52.056;5.296;2023-03-23T00:49:26;9.23;;;4.00;;
68234;SDS011;55052;52.056;5.296;2023-03-23T00:51:53;9.65;;;4.00;;
68234;SDS011;55052;52.056;5.296;2023-03-23T00:54:21;7.85;;;3.80;;
68234;SDS011;55052;52.056;5.296;2023-03-23T00:56:47;6.32;;;3.38;;
68234;SDS011;55052;52.056;5.296;2023-03-23T00:59:14;7.03;;;3.40;;
68234;SDS011;55052;52.056;5.296;2023-03-23T01:01:39;9.30;;;3.50;;
68234;SDS011;55052;52.056;5.296;2023-03-23T01:04:06;10.50;;;3.58;;
68234;SDS011;55052;52.056;5.296;2023-03-23T01:06:35;6.63;;;3.33;;
68234;SDS011;55052;52.056;5.296;2023-03-23T01:09:06;5.88;;;3.30;;
68234;SDS011;55052;52.056;5.296;2023-03-23T01:11:33;6.35;;;3.17;;
68234;SDS011;55052;52.056;5.296;2023-03-23T01:14:00;9.43;;;3.65;;
68234;SDS011;55052;52.056;5.296;2023-03-23T01:16:26;7.40;;;3.50;;
68234;SDS011;55052;52.056;5.296;2023-03-23T01:18:53;7.85;;;3.53;;
68234;SDS011;55052;52.056;5.296;2023-03-23T01:21:19;9.40;;;3.60;;
68234;SDS011;55052;52.056;5.296;2023-03-23T01:23:46;8.57;;;3.60;;
68234;SDS011;55052;52.056;5.296;2023-03-23T01:26:13;8.68;;;3.53;;
68234;SDS011;55052;52.056;5.296;2023-03-23T01:28:42;11.82;;;4.00;;
68234;SDS011;55052;52.056;5.296;2023-03-23T01:31:09;6.55;;;3.70;;
68234;SDS011;55052;52.056;5.296;2023-03-23T01:33:37;6.68;;;3.28;;
68234;SDS011;55052;52.056;5.296;2023-03-23T01:36:05;8.18;;;3.70;;
68234;SDS011;55052;52.056;5.296;2023-03-23T01:38:38;6.45;;;3.45;;
68234;SDS011;55052;52.056;5.296;2023-03-23T01:41:05;7.65;;;3.45;;
68234;SDS011;55052;52.056;5.296;2023-03-23T01:43:31;6.47;;;3.55;;
68234;SDS011;55052;52.056;5.296;2023-03-23T01:45:57;6.57;;;3.50;;
68234;SDS011;55052;52.056;5.296;2023-03-23T01:48:23;6.43;;;3.40;;
68234;SDS011;55052;52.056;5.296;2023-03-23T01:51:03;5.57;;;3.10;;
68234;SDS011;55052;52.056;5.296;2023-03-23T01:53:36;7.20;;;3.33;;
68234;SDS011;55052;52.056;5.296;2023-03-23T01:56:07;5.82;;;3.33;;
68234;SDS011;55052;52.056;5.296;2023-03-23T01:58:38;6.63;;;3.83;;
68234;SDS011;55052;52.056;5.296;2023-03-23T02:01:06;6.88;;;3.58;;
68234;SDS011;55052;52.056;5.296;2023-03-23T02:03:36;5.70;;;3.40;;
68234;SDS011;55052;52.056;5.296;2023-03-23T02:06:06;5.85;;;4.00;;
68234;SDS011;55052;52.056;5.296;2023-03-23T02:08:32;8.35;;;3.75;;
68234;SDS011;55052;52.056;5.296;2023-03-23T02:10:59;5.40;;;3.10;;
68234;SDS011;55052;52.056;5.296;2023-03-23T02:13:25;6.45;;;3.50;;
68234;SDS011;55052;52.056;5.296;2023-03-23T02:19:34;7.72;;;3.97;;
68234;SDS011;55052;52.056;5.296;2023-03-23T02:22:27;6.70;;;3.97;;
68234;SDS011;55052;52.056;5.296;2023-03-23T02:30:30;8.70;;;3.65;;
68234;SDS011;55052;52.056;5.296;2023-03-23T02:33:36;6.85;;;3.60;;
68234;SDS011;55052;52.056;5.296;2023-03-23T02:36:13;7.20;;;3.92;;
68234;SDS011;55052;52.056;5.296;2023-03-23T02:41:39;8.90;;;3.80;;
68234;SDS011;55052;52.056;5.296;2023-03-23T02:44:08;7.40;;;3.60;;
68234;SDS011;55052;52.056;5.296;2023-03-23T02:46:35;8.07;;;3.85;;
68234;SDS011;55052;52.056;5.296;2023-03-23T02:49:03;8.82;;;3.70;;
68234;SDS011;55052;52.056;5.296;2023-03-23T02:51:30;7.93;;;4.05;;
68234;SDS011;55052;52.056;5.296;2023-03-23T02:53:59;7.22;;;3.70;;
68234;SDS011;55052;52.056;5.296;2023-03-23T02:56:26;7.40;;;3.75;;
68234;SDS011;55052;52.056;5.296;2023-03-23T02:58:54;9.40;;;3.65;;
68234;SDS011;55052;52.056;5.296;2023-03-23T03:03:58;6.90;;;3.47;;
68234;SDS011;55052;52.056;5.296;2023-03-23T03:06:46;6.32;;;3.40;;
68234;SDS011;55052;52.056;5.296;2023-03-23T03:11:59;7.93;;;3.45;;
68234;SDS011;55052;52.056;5.296;2023-03-23T03:14:34;7.63;;;3.65;;
68234;SDS011;55052;52.056;5.296;2023-03-23T03:17:17;8.40;;;3.60;;
68234;SDS011;55052;52.056;5.296;2023-03-23T03:19:49;6.30;;;3.58;;
68234;SDS011;55052;52.056;5.296;2023-03-23T03:22:18;9.43;;;3.50;;
68234;SDS011;55052;52.056;5.296;2023-03-23T03:24:46;6.55;;;3.78;;
68234;SDS011;55052;52.056;5.296;2023-03-23T03:27:14;8.25;;;3.20;;
68234;SDS011;55052;52.056;5.296;2023-03-23T03:29:43;8.57;;;3.38;;
68234;SDS011;55052;52.056;5.296;2023-03-23T03:32:13;6.65;;;3.10;;
68234;SDS011;55052;52.056;5.296;2023-03-23T03:34:47;6.25;;;3.20;;
68234;SDS011;55052;52.056;5.296;2023-03-23T03:37:15;9.70;;;3.35;;
68234;SDS011;55052;52.056;5.296;2023-03-23T03:39:42;8.50;;;3.45;;
68234;SDS011;55052;52.056;5.296;2023-03-23T03:42:08;6.22;;;2.90;;
68234;SDS011;55052;52.056;5.296;2023-03-23T03:44:34;7.05;;;3.00;;
68234;SDS011;55052;52.056;5.296;2023-03-23T03:47:00;6.38;;;3.10;;
68234;SDS011;55052;52.056;5.296;2023-03-23T03:49:26;7.70;;;2.60;;
68234;SDS011;55052;52.056;5.296;2023-03-23T03:51:52;7.65;;;3.13;;
68234;SDS011;55052;52.056;5.296;2023-03-23T03:54:17;8.77;;;2.67;;
68234;SDS011;55052;52.056;5.296;2023-03-23T03:56:43;6.95;;;3.22;;
68234;SDS011;55052;52.056;5.296;2023-03-23T03:59:10;10.07;;;3.05;;
68234;SDS011;55052;52.056;5.296;2023-03-23T04:01:37;7.57;;;2.42;;
68234;SDS011;55052;52.056;5.296;2023-03-23T04:04:04;6.30;;;2.60;;
68234;SDS011;55052;52.056;5.296;2023-03-23T04:06:32;8.68;;;2.83;;
68234;SDS011;55052;52.056;5.296;2023-03-23T04:09:02;7.25;;;2.63;;
68234;SDS011;55052;52.056;5.296;2023-03-23T04:11:31;8.43;;;2.60;;
68234;SDS011;55052;52.056;5.296;2023-03-23T04:13:57;11.88;;;2.90;;
68234;SDS011;55052;52.056;5.296;2023-03-23T04:16:23;5.28;;;2.85;;
68234;SDS011;55052;52.056;5.296;2023-03-23T04:18:49;6.65;;;2.50;;
68234;SDS011;55052;52.056;5.296;2023-03-23T04:21:14;6.82;;;2.50;;
68234;SDS011;55052;52.056;5.296;2023-03-23T04:23:41;8.27;;;2.67;;
68234;SDS011;55052;52.056;5.296;2023-03-23T04:26:07;9.13;;;2.17;;
68234;SDS011;55052;52.056;5.296;2023-03-23T04:28:33;7.90;;;2.53;;
68234;SDS011;55052;52.056;5.296;2023-03-23T04:31:00;8.57;;;2.40;;
68234;SDS011;55052;52.056;5.296;2023-03-23T04:33:28;7.45;;;2.55;;
68234;SDS011;55052;52.056;5.296;2023-03-23T04:35:56;5.65;;;2.08;;
68234;SDS011;55052;52.056;5.296;2023-03-23T04:38:26;10.82;;;2.08;;
68234;SDS011;55052;52.056;5.296;2023-03-23T04:40:53;7.45;;;2.45;;
68234;SDS011;55052;52.056;5.296;2023-03-23T04:43:20;7.65;;;2.10;;
68234;SDS011;55052;52.056;5.296;2023-03-23T04:45:52;5.40;;;2.22;;
68234;SDS011;55052;52.056;5.296;2023-03-23T04:48:21;8.15;;;1.85;;
68234;SDS011;55052;52.056;5.296;2023-03-23T04:50:52;8.27;;;2.40;;
68234;SDS011;55052;52.056;5.296;2023-03-23T04:53:18;9.70;;;2.40;;
68234;SDS011;55052;52.056;5.296;2023-03-23T04:55:44;9.95;;;2.72;;
68234;SDS011;55052;52.056;5.296;2023-03-23T04:58:10;7.95;;;2.28;;
68234;SDS011;55052;52.056;5.296;2023-03-23T05:00:39;7.78;;;2.13;;
68234;SDS011;55052;52.056;5.296;2023-03-23T05:03:08;10.85;;;2.20;;
68234;SDS011;55052;52.056;5.296;2023-03-23T05:05:35;10.73;;;2.22;;
68234;SDS011;55052;52.056;5.296;2023-03-23T05:08:01;8.32;;;2.15;;
68234;SDS011;55052;52.056;5.296;2023-03-23T05:10:27;7.68;;;1.98;;
68234;SDS011;55052;52.056;5.296;2023-03-23T05:12:53;7.63;;;2.25;;
68234;SDS011;55052;52.056;5.296;2023-03-23T05:15:19;9.50;;;2.67;;
68234;SDS011;55052;52.056;5.296;2023-03-23T05:17:45;4.43;;;1.85;;
68234;SDS011;55052;52.056;5.296;2023-03-23T05:20:14;12.30;;;2.60;;
68234;SDS011;55052;52.056;5.296;2023-03-23T05:22:44;11.35;;;2.30;;
68234;SDS011;55052;52.056;5.296;2023-03-23T05:25:12;4.68;;;1.75;;
68234;SDS011;55052;52.056;5.296;2023-03-23T05:27:39;9.88;;;2.28;;
68234;SDS011;55052;52.056;5.296;2023-03-23T05:30:07;11.25;;;2.20;;
68234;SDS011;55052;52.056;5.296;2023-03-23T05:32:34;12.73;;;2.58;;
68234;SDS011;55052;52.056;5.296;2023-03-23T05:35:02;8.13;;;2.28;;
68234;SDS011;55052;52.056;5.296;2023-03-23T05:37:28;7.53;;;2.03;;
68234;SDS011;55052;52.056;5.296;2023-03-23T05:39:57;8.43;;;2.38;;
68234;SDS011;55052;52.056;5.296;2023-03-23T05:42:31;9.15;;;1.90;;
68234;SDS011;55052;52.056;5.296;2023-03-23T05:44:58;11.30;;;3.13;;
68234;SDS011;55052;52.056;5.296;2023-03-23T05:47:24;11.20;;;2.33;;
68234;SDS011;55052;52.056;5.296;2023-03-23T05:49:50;9.88;;;2.20;;
68234;SDS011;55052;52.056;5.296;2023-03-23T05:52:17;9.48;;;2.42;;
68234;SDS011;55052;52.056;5.296;2023-03-23T05:54:44;7.07;;;2.05;;
68234;SDS011;55052;52.056;5.296;2023-03-23T05:57:10;9.65;;;2.45;;
68234;SDS011;55052;52.056;5.296;2023-03-23T05:59:36;11.90;;;2.45;;
68234;SDS011;55052;52.056;5.296;2023-03-23T06:02:02;8.18;;;2.22;;
68234;SDS011;55052;52.056;5.296;2023-03-23T06:04:28;9.35;;;2.80;;
68234;SDS011;55052;52.056;5.296;2023-03-23T06:06:54;13.93;;;2.92;;
68234;SDS011;55052;52.056;5.296;2023-03-23T06:09:21;9.57;;;2.50;;
68234;SDS011;55052;52.056;5.296;2023-03-23T06:11:48;9.95;;;2.17;;
68234;SDS011;55052;52.056;5.296;2023-03-23T06:14:14;8.82;;;2.20;;
68234;SDS011;55052;52.056;5.296;2023-03-23T06:16:41;10.32;;;2.15;;
68234;SDS011;55052;52.056;5.296;2023-03-23T06:19:07;11.02;;;2.58;;
68234;SDS011;55052;52.056;5.296;2023-03-23T06:21:33;9.85;;;2.40;;
68234;SDS011;55052;52.056;5.296;2023-03-23T06:23:59;8.50;;;2.45;;
68234;SDS011;55052;52.056;5.296;2023-03-23T06:26:30;10.10;;;2.60;;
68234;SDS011;55052;52.056;5.296;2023-03-23T06:28:59;9.52;;;2.55;;
68234;SDS011;55052;52.056;5.296;2023-03-23T06:31:24;6.22;;;2.15;;
68234;SDS011;55052;52.056;5.296;2023-03-23T06:33:52;12.98;;;2.60;;
68234;SDS011;55052;52.056;5.296;2023-03-23T06:36:18;10.00;;;2.83;;
68234;SDS011;55052;52.056;5.296;2023-03-23T06:38:44;13.50;;;3.45;;
68234;SDS011;55052;52.056;5.296;2023-03-23T06:41:10;12.60;;;3.25;;
68234;SDS011;55052;52.056;5.296;2023-03-23T06:43:36;11.43;;;2.65;;
68234;SDS011;55052;52.056;5.296;2023-03-23T06:46:04;11.32;;;3.50;;
68234;SDS011;55052;52.056;5.296;2023-03-23T06:48:31;12.98;;;3.25;;
68234;SDS011;55052;52.056;5.296;2023-03-23T06:50:57;7.65;;;2.60;;
68234;SDS011;55052;52.056;5.296;2023-03-23T06:53:23;13.90;;;3.05;;
68234;SDS011;55052;52.056;5.296;2023-03-23T06:55:49;8.23;;;2.80;;
68234;SDS011;55052;52.056;5.296;2023-03-23T06:58:15;6.63;;;2.30;;
68234;SDS011;55052;52.056;5.296;2023-03-23T07:00:41;8.18;;;2.30;;
68234;SDS011;55052;52.056;5.296;2023-03-23T07:03:07;8.85;;;2.45;;
68234;SDS011;55052;52.056;5.296;2023-03-23T07:05:33;8.63;;;2.42;;
68234;SDS011;55052;52.056;5.296;2023-03-23T07:08:00;6.88;;;2.15;;
68234;SDS011;55052;52.056;5.296;2023-03-23T07:10:27;9.93;;;2.70;;
68234;SDS011;55052;52.056;5.296;2023-03-23T07:12:53;11.50;;;2.40;;
68234;SDS011;55052;52.056;5.296;2023-03-23T07:15:19;9.52;;;1.90;;
68234;SDS011;55052;52.056;5.296;2023-03-23T07:17:45;8.32;;;2.67;;
68234;SDS011;55052;52.056;5.296;2023-03-23T07:20:12;11.20;;;2.42;;
68234;SDS011;55052;52.056;5.296;2023-03-23T07:22:38;8.95;;;2.47;;
68234;SDS011;55052;52.056;5.296;2023-03-23T07:25:04;8.70;;;2.58;;
68234;SDS011;55052;52.056;5.296;2023-03-23T07:27:30;8.25;;;2.28;;
68234;SDS011;55052;52.056;5.296;2023-03-23T07:29:56;6.95;;;2.30;;
68234;SDS011;55052;52.056;5.296;2023-03-23T07:32:23;10.98;;;2.63;;
68234;SDS011;55052;52.056;5.296;2023-03-23T07:34:49;9.95;;;2.97;;
68234;SDS011;55052;52.056;5.296;2023-03-23T07:37:15;7.90;;;2.67;;
68234;SDS011;55052;52.056;5.296;2023-03-23T07:39:42;11.02;;;2.40;;
68234;SDS011;55052;52.056;5.296;2023-03-23T07:42:08;6.03;;;2.17;;
68234;SDS011;55052;52.056;5.296;2023-03-23T07:44:34;9.48;;;2.50;;
68234;SDS011;55052;52.056;5.296;2023-03-23T07:47:00;7.47;;;2.65;;
68234;SDS011;55052;52.056;5.296;2023-03-23T07:49:27;7.97;;;2.53;;
68234;SDS011;55052;52.056;5.296;2023-03-23T07:51:52;10.15;;;2.80;;
68234;SDS011;55052;52.056;5.296;2023-03-23T07:54:18;12.35;;;2.92;;
68234;SDS011;55052;52.056;5.296;2023-03-23T07:56:44;10.65;;;2.70;;
68234;SDS011;55052;52.056;5.296;2023-03-23T07:59:10;9.88;;;2.90;;
68234;SDS011;55052;52.056;5.296;2023-03-23T08:01:37;10.10;;;2.67;;
68234;SDS011;55052;52.056;5.296;2023-03-23T08:04:04;10.32;;;2.80;;
68234;SDS011;55052;52.056;5.296;2023-03-23T08:06:33;9.75;;;2.50;;
68234;SDS011;55052;52.056;5.296;2023-03-23T08:09:00;8.47;;;2.53;;
68234;SDS011;55052;52.056;5.296;2023-03-23T08:11:26;7.38;;;2.65;;
68234;SDS011;55052;52.056;5.296;2023-03-23T08:13:52;8.40;;;2.42;;
68234;SDS011;55052;52.056;5.296;2023-03-23T08:16:18;6.15;;;2.08;;
68234;SDS011;55052;52.056;5.296;2023-03-23T08:18:45;9.95;;;2.67;;
68234;SDS011;55052;52.056;5.296;2023-03-23T08:21:12;7.57;;;2.25;;
68234;SDS011;55052;52.056;5.296;2023-03-23T08:23:38;9.23;;;2.63;;
68234;SDS011;55052;52.056;5.296;2023-03-23T08:26:07;8.68;;;2.55;;
68234;SDS011;55052;52.056;5.296;2023-03-23T08:28:34;10.20;;;3.03;;
68234;SDS011;55052;52.056;5.296;2023-03-23T08:31:05;9.45;;;2.80;;
68234;SDS011;55052;52.056;5.296;2023-03-23T08:33:39;7.55;;;2.35;;
68234;SDS011;55052;52.056;5.296;2023-03-23T08:36:06;11.75;;;3.10;;
68234;SDS011;55052;52.056;5.296;2023-03-23T08:38:33;7.75;;;2.42;;
68234;SDS011;55052;52.056;5.296;2023-03-23T08:41:03;11.35;;;3.05;;
68234;SDS011;55052;52.056;5.296;2023-03-23T08:43:30;9.85;;;2.83;;
68234;SDS011;55052;52.056;5.296;2023-03-23T08:45:57;9.82;;;2.95;;
68234;SDS011;55052;52.056;5.296;2023-03-23T08:48:24;10.63;;;2.90;;
68234;SDS011;55052;52.056;5.296;2023-03-23T08:50:49;10.27;;;2.95;;
68234;SDS011;55052;52.056;5.296;2023-03-23T08:53:17;9.07;;;3.05;;
68234;SDS011;55052;52.056;5.296;2023-03-23T08:55:45;7.30;;;2.63;;
68234;SDS011;55052;52.056;5.296;2023-03-23T08:58:12;10.10;;;2.80;;
68234;SDS011;55052;52.056;5.296;2023-03-23T09:00:37;11.45;;;2.75;;
68234;SDS011;55052;52.056;5.296;2023-03-23T09:03:04;6.93;;;2.60;;
68234;SDS011;55052;52.056;5.296;2023-03-23T09:05:29;6.85;;;2.35;;
68234;SDS011;55052;52.056;5.296;2023-03-23T09:07:56;9.60;;;2.67;;
68234;SDS011;55052;52.056;5.296;2023-03-23T09:10:26;7.70;;;2.42;;
68234;SDS011;55052;52.056;5.296;2023-03-23T09:12:55;10.98;;;2.97;;
68234;SDS011;55052;52.056;5.296;2023-03-23T09:15:21;11.45;;;2.72;;
68234;SDS011;55052;52.056;5.296;2023-03-23T09:17:48;8.23;;;2.47;;
68234;SDS011;55052;52.056;5.296;2023-03-23T09:20:17;10.70;;;2.85;;
68234;SDS011;55052;52.056;5.296;2023-03-23T09:22:46;11.43;;;2.85;;
68234;SDS011;55052;52.056;5.296;2023-03-23T09:25:15;8.93;;;2.92;;
68234;SDS011;55052;52.056;5.296;2023-03-23T09:27:48;11.80;;;2.60;;
68234;SDS011;55052;52.056;5.296;2023-03-23T09:30:18;8.95;;;2.83;;
68234;SDS011;55052;52.056;5.296;2023-03-23T09:32:45;12.48;;;2.67;;
68234;SDS011;55052;52.056;5.296;2023-03-23T09:35:13;10.13;;;2.58;;
68234;SDS011;55052;52.056;5.296;2023-03-23T09:37:41;14.48;;;2.83;;
68234;SDS011;55052;52.056;5.296;2023-03-23T09:40:14;11.35;;;3.20;;
68234;SDS011;55052;52.056;5.296;2023-03-23T09:53:14;9.07;;;2.40;;
68234;SDS011;55052;52.056;5.296;2023-03-23T09:55:45;15.20;;;3.33;;
68234;SDS011;55052;52.056;5.296;2023-03-23T10:03:30;10.13;;;2.45;;
68234;SDS011;55052;52.056;5.296;2023-03-23T10:06:01;11.77;;;2.60;;
68234;SDS011;55052;52.056;5.296;2023-03-23T10:08:29;13.00;;;2.58;;
68234;SDS011;55052;52.056;5.296;2023-03-23T10:16:30;11.75;;;2.47;;
68234;SDS011;55052;52.056;5.296;2023-03-23T10:19:08;9.88;;;2.28;;
68234;SDS011;55052;52.056;5.296;2023-03-23T10:21:47;13.30;;;2.58;;
68234;SDS011;55052;52.056;5.296;2023-03-23T10:24:19;17.67;;;2.83;;
68234;SDS011;55052;52.056;5.296;2023-03-23T10:29:36;9.55;;;2.47;;
68234;SDS011;55052;52.056;5.296;2023-03-23T10:32:13;13.68;;;2.95;;
68234;SDS011;55052;52.056;5.296;2023-03-23T10:34:46;11.05;;;2.97;;
68234;SDS011;55052;52.056;5.296;2023-03-23T10:37:44;14.55;;;2.63;;
68234;SDS011;55052;52.056;5.296;2023-03-23T10:40:23;11.25;;;2.63;;
68234;SDS011;55052;52.056;5.296;2023-03-23T10:42:52;14.73;;;2.47;;
68234;SDS011;55052;52.056;5.296;2023-03-23T10:45:21;13.80;;;3.33;;
68234;SDS011;55052;52.056;5.296;2023-03-23T10:50:35;16.17;;;2.88;;
68234;SDS011;55052;52.056;5.296;2023-03-23T10:53:04;15.10;;;2.90;;
68234;SDS011;55052;52.056;5.296;2023-03-23T10:55:41;12.63;;;2.88;;
68234;SDS011;55052;52.056;5.296;2023-03-23T10:58:11;11.27;;;2.78;;
68234;SDS011;55052;52.056;5.296;2023-03-23T11:00:47;15.35;;;3.28;;
68234;SDS011;55052;52.056;5.296;2023-03-23T11:05:43;15.60;;;2.65;;
68234;SDS011;55052;52.056;5.296;2023-03-23T11:08:19;14.68;;;3.28;;
68234;SDS011;55052;52.056;5.296;2023-03-23T11:10:50;12.82;;;2.75;;
68234;SDS011;55052;52.056;5.296;2023-03-23T11:13:18;10.32;;;2.20;;
68234;SDS011;55052;52.056;5.296;2023-03-23T11:15:47;12.15;;;2.80;;
68234;SDS011;55052;52.056;5.296;2023-03-23T11:18:21;12.13;;;2.60;;
68234;SDS011;55052;52.056;5.296;2023-03-23T11:20:59;8.60;;;1.98;;
68234;SDS011;55052;52.056;5.296;2023-03-23T11:23:46;11.40;;;2.58;;
68234;SDS011;55052;52.056;5.296;2023-03-23T11:26:16;11.60;;;2.47;;
68234;SDS011;55052;52.056;5.296;2023-03-23T11:31:39;10.95;;;2.75;;
68234;SDS011;55052;52.056;5.296;2023-03-23T11:34:14;16.95;;;2.50;;
68234;SDS011;55052;52.056;5.296;2023-03-23T11:36:43;14.30;;;2.88;;
68234;SDS011;55052;52.056;5.296;2023-03-23T11:39:28;10.50;;;2.63;;
68234;SDS011;55052;52.056;5.296;2023-03-23T11:42:12;16.25;;;2.88;;
68234;SDS011;55052;52.056;5.296;2023-03-23T11:44:45;19.05;;;3.22;;
68234;SDS011;55052;52.056;5.296;2023-03-23T11:47:25;11.35;;;2.47;;
68234;SDS011;55052;52.056;5.296;2023-03-23T11:50:17;15.88;;;2.97;;
68234;SDS011;55052;52.056;5.296;2023-03-23T11:58:26;13.95;;;2.75;;
68234;SDS011;55052;52.056;5.296;2023-03-23T12:00:58;10.55;;;2.42;;
68234;SDS011;55052;52.056;5.296;2023-03-23T12:06:06;11.00;;;2.60;;
68234;SDS011;55052;52.056;5.296;2023-03-23T12:11:15;14.32;;;2.88;;
68234;SDS011;55052;52.056;5.296;2023-03-23T12:13:52;8.65;;;2.05;;
68234;SDS011;55052;52.056;5.296;2023-03-23T12:30:45;7.55;;;2.20;;
68234;SDS011;55052;52.056;5.296;2023-03-23T12:33:26;10.35;;;2.20;;
68234;SDS011;55052;52.056;5.296;2023-03-23T12:38:51;10.07;;;1.98;;
68234;SDS011;55052;52.056;5.296;2023-03-23T12:44:00;9.75;;;1.95;;
68234;SDS011;55052;52.056;5.296;2023-03-23T12:49:15;11.35;;;2.95;;
68234;SDS011;55052;52.056;5.296;2023-03-23T12:51:49;9.32;;;2.30;;
68234;SDS011;55052;52.056;5.296;2023-03-23T12:57:29;8.68;;;2.08;;
68234;SDS011;55052;52.056;5.296;2023-03-23T13:00:24;6.22;;;1.95;;
68234;SDS011;55052;52.056;5.296;2023-03-23T13:02:57;7.00;;;2.08;;
68234;SDS011;55052;52.056;5.296;2023-03-23T13:08:14;8.95;;;2.40;;
68234;SDS011;55052;52.056;5.296;2023-03-23T13:10:45;10.90;;;2.03;;
68234;SDS011;55052;52.056;5.296;2023-03-23T13:13:16;9.43;;;2.22;;
68234;SDS011;55052;52.056;5.296;2023-03-23T13:16:00;8.77;;;1.98;;
68234;SDS011;55052;52.056;5.296;2023-03-23T13:18:37;10.20;;;2.15;;
68234;SDS011;55052;52.056;5.296;2023-03-23T13:21:27;11.55;;;2.38;;
68234;SDS011;55052;52.056;5.296;2023-03-23T13:24:03;8.85;;;2.50;;
68234;SDS011;55052;52.056;5.296;2023-03-23T13:26:32;9.93;;;2.17;;
68234;SDS011;55052;52.056;5.296;2023-03-23T13:29:15;10.10;;;2.42;;
68234;SDS011;55052;52.056;5.296;2023-03-23T13:31:45;8.20;;;2.33;;
68234;SDS011;55052;52.056;5.296;2023-03-23T13:34:18;11.55;;;2.47;;
68234;SDS011;55052;52.056;5.296;2023-03-23T13:36:54;10.20;;;2.42;;
68234;SDS011;55052;52.056;5.296;2023-03-23T13:39:32;13.77;;;3.00;;
68234;SDS011;55052;52.056;5.296;2023-03-23T13:47:36;12.95;;;2.60;;
68234;SDS011;55052;52.056;5.296;2023-03-23T13:52:53;8.20;;;2.40;;
68234;SDS011;55052;52.056;5.296;2023-03-23T13:56:06;7.32;;;2.28;;
68234;SDS011;55052;52.056;5.296;2023-03-23T13:58:22;8.35;;;2.58;;
68234;SDS011;55052;52.056;5.296;2023-03-23T14:01:01;8.38;;;1.90;;
68234;SDS011;55052;52.056;5.296;2023-03-23T14:03:42;7.47;;;1.92;;
68234;SDS011;55052;52.056;5.296;2023-03-23T14:06:15;7.30;;;2.20;;
68234;SDS011;55052;52.056;5.296;2023-03-23T14:08:45;7.97;;;2.17;;
68234;SDS011;55052;52.056;5.296;2023-03-23T14:19:00;8.05;;;2.30;;
68234;SDS011;55052;52.056;5.296;2023-03-23T14:21:35;7.28;;;2.05;;
68234;SDS011;55052;52.056;5.296;2023-03-23T14:24:09;9.82;;;2.55;;
68234;SDS011;55052;52.056;5.296;2023-03-23T14:26:37;7.72;;;1.92;;
68234;SDS011;55052;52.056;5.296;2023-03-23T14:29:05;9.93;;;2.30;;
68234;SDS011;55052;52.056;5.296;2023-03-23T14:31:31;8.43;;;3.17;;
68234;SDS011;55052;52.056;5.296;2023-03-23T14:34:01;13.00;;;2.33;;
68234;SDS011;55052;52.056;5.296;2023-03-23T14:36:47;10.02;;;2.33;;
68234;SDS011;55052;52.056;5.296;2023-03-23T14:41:53;6.40;;;1.93;;
68234;SDS011;55052;52.056;5.296;2023-03-23T14:44:26;7.47;;;1.90;;
68234;SDS011;55052;52.056;5.296;2023-03-23T14:46:56;7.35;;;2.25;;
68234;SDS011;55052;52.056;5.296;2023-03-23T14:49:30;10.05;;;2.42;;
68234;SDS011;55052;52.056;5.296;2023-03-23T14:52:02;11.00;;;2.72;;
68234;SDS011;55052;52.056;5.296;2023-03-23T14:54:33;13.52;;;1.90;;
68234;SDS011;55052;52.056;5.296;2023-03-23T14:57:02;10.75;;;2.30;;
68234;SDS011;55052;52.056;5.296;2023-03-23T14:59:43;7.85;;;2.13;;
68234;SDS011;55052;52.056;5.296;2023-03-23T15:02:16;9.60;;;2.17;;
68234;SDS011;55052;52.056;5.296;2023-03-23T15:04:50;10.18;;;2.47;;
68234;SDS011;55052;52.056;5.296;2023-03-23T15:07:21;8.98;;;2.30;;
68234;SDS011;55052;52.056;5.296;2023-03-23T15:12:19;11.20;;;2.28;;
68234;SDS011;55052;52.056;5.296;2023-03-23T15:14:54;9.35;;;2.70;;
68234;SDS011;55052;52.056;5.296;2023-03-23T15:17:23;10.95;;;2.67;;
68234;SDS011;55052;52.056;5.296;2023-03-23T15:19:51;8.27;;;1.90;;
68234;SDS011;55052;52.056;5.296;2023-03-23T15:22:23;8.35;;;2.05;;
68234;SDS011;55052;52.056;5.296;2023-03-23T15:24:52;11.80;;;2.88;;
68234;SDS011;55052;52.056;5.296;2023-03-23T15:27:29;7.88;;;2.10;;
68234;SDS011;55052;52.056;5.296;2023-03-23T15:29:58;10.38;;;2.40;;
68234;SDS011;55052;52.056;5.296;2023-03-23T15:32:38;10.85;;;2.60;;
68234;SDS011;55052;52.056;5.296;2023-03-23T15:35:13;7.70;;;2.42;;
68234;SDS011;55052;52.056;5.296;2023-03-23T15:37:45;8.35;;;2.38;;
68234;SDS011;55052;52.056;5.296;2023-03-23T15:40:20;7.90;;;2.13;;
68234;SDS011;55052;52.056;5.296;2023-03-23T15:42:48;12.45;;;2.50;;
68234;SDS011;55052;52.056;5.296;2023-03-23T15:45:25;9.15;;;2.17;;
68234;SDS011;55052;52.056;5.296;2023-03-23T15:47:52;11.10;;;2.50;;
68234;SDS011;55052;52.056;5.296;2023-03-23T15:50:39;11.13;;;2.72;;
68234;SDS011;55052;52.056;5.296;2023-03-23T15:53:47;11.70;;;3.55;;
68234;SDS011;55052;52.056;5.296;2023-03-23T15:55:58;10.05;;;2.17;;
68234;SDS011;55052;52.056;5.296;2023-03-23T15:58:29;9.90;;;2.75;;
68234;SDS011;55052;52.056;5.296;2023-03-23T16:00:56;9.98;;;2.40;;
68234;SDS011;55052;52.056;5.296;2023-03-23T16:03:26;9.02;;;2.22;;
68234;SDS011;55052;52.056;5.296;2023-03-23T16:06:02;11.73;;;2.83;;
68234;SDS011;55052;52.056;5.296;2023-03-23T16:08:29;8.75;;;2.25;;
68234;SDS011;55052;52.056;5.296;2023-03-23T16:10:56;8.57;;;2.28;;
68234;SDS011;55052;52.056;5.296;2023-03-23T16:13:23;14.25;;;2.70;;
68234;SDS011;55052;52.056;5.296;2023-03-23T16:15:49;8.73;;;2.72;;
68234;SDS011;55052;52.056;5.296;2023-03-23T16:18:17;9.88;;;2.33;;
68234;SDS011;55052;52.056;5.296;2023-03-23T16:20:47;11.35;;;2.58;;
68234;SDS011;55052;52.056;5.296;2023-03-23T16:23:15;10.95;;;2.50;;
68234;SDS011;55052;52.056;5.296;2023-03-23T16:25:42;12.00;;;2.40;;
68234;SDS011;55052;52.056;5.296;2023-03-23T16:28:12;10.65;;;2.30;;
68234;SDS011;55052;52.056;5.296;2023-03-23T16:30:40;12.35;;;3.13;;
68234;SDS011;55052;52.056;5.296;2023-03-23T16:33:08;11.25;;;2.50;;
68234;SDS011;55052;52.056;5.296;2023-03-23T16:35:36;12.55;;;2.78;;
68234;SDS011;55052;52.056;5.296;2023-03-23T16:38:03;8.45;;;2.60;;
68234;SDS011;55052;52.056;5.296;2023-03-23T16:40:35;9.90;;;2.75;;
68234;SDS011;55052;52.056;5.296;2023-03-23T16:43:02;9.15;;;2.25;;
68234;SDS011;55052;52.056;5.296;2023-03-23T16:45:34;12.43;;;3.17;;
68234;SDS011;55052;52.056;5.296;2023-03-23T16:48:09;13.00;;;2.58;;
68234;SDS011;55052;52.056;5.296;2023-03-23T16:50:37;10.90;;;2.60;;
68234;SDS011;55052;52.056;5.296;2023-03-23T16:53:05;9.55;;;2.53;;